createdAt,value
2022-12-18T00:00:05.384Z,56.87
2022-12-18T00:03:01.450Z,55.33
2022-12-18T00:05:30.212Z,53.87
2022-12-18T00:07:58.078Z,51.87
2022-12-18T00:10:26.445Z,54.47
2022-12-18T00:12:54.204Z,64.17
2022-12-18T00:15:22.411Z,59.47
2022-12-18T00:17:50.256Z,63.53
2022-12-18T00:20:22.815Z,62.90
2022-12-18T00:22:50.672Z,60.17
2022-12-18T00:25:18.997Z,49.63
2022-12-18T00:27:46.808Z,52.47
2022-12-18T00:30:15.623Z,50.33
2022-12-18T00:32:43.486Z,52.33
2022-12-18T00:35:11.511Z,52.97
2022-12-18T00:37:39.249Z,50.20
2022-12-18T00:40:07.637Z,51.47
2022-12-18T00:42:54.175Z,51.10
2022-12-18T00:45:25.346Z,50.97
2022-12-18T00:47:53.306Z,47.67
2022-12-18T00:50:21.587Z,48.43
2022-12-18T00:52:49.555Z,45.57
2022-12-18T00:55:18.363Z,48.33
2022-12-18T00:57:48.361Z,49.17
2022-12-18T01:00:17.309Z,44.07
2022-12-18T01:02:45.557Z,48.17
2022-12-18T01:05:14.503Z,48.47
2022-12-18T01:07:42.642Z,47.27
2022-12-18T01:10:11.909Z,45.67
2022-12-18T01:12:39.895Z,47.03
2022-12-18T01:15:08.627Z,49.33
2022-12-18T01:17:36.825Z,47.43
2022-12-18T01:20:04.986Z,45.93
2022-12-18T01:22:34.125Z,49.17
2022-12-18T01:25:02.376Z,47.77
2022-12-18T01:27:30.316Z,46.70
2022-12-18T01:29:58.381Z,45.83
2022-12-18T01:32:27.515Z,47.37
2022-12-18T01:34:55.796Z,46.60
2022-12-18T01:37:23.531Z,45.77
2022-12-18T01:39:53.582Z,45.10
2022-12-18T01:42:21.323Z,44.17
2022-12-18T01:45:03.485Z,45.30
2022-12-18T01:47:46.952Z,41.33
2022-12-18T01:50:18.411Z,43.23
2022-12-18T01:52:50.755Z,45.80
2022-12-18T01:55:21.175Z,42.47
2022-12-18T01:57:49.318Z,41.43
2022-12-18T02:00:20.674Z,42.83
2022-12-18T02:02:49.056Z,41.67
2022-12-18T02:05:19.775Z,43.80
2022-12-18T02:07:57.308Z,41.30
2022-12-18T02:10:31.075Z,41.43
2022-12-18T02:13:02.038Z,44.00
2022-12-18T02:16:04.740Z,41.30
2022-12-18T02:18:34.490Z,40.90
2022-12-18T02:21:02.625Z,41.30
2022-12-18T02:23:42.480Z,41.00
2022-12-18T02:26:19.958Z,37.77
2022-12-18T02:29:11.385Z,41.03
2022-12-18T02:31:45.400Z,39.50
2022-12-18T02:34:14.659Z,40.90
2022-12-18T02:36:45.868Z,38.70
2022-12-18T02:39:16.033Z,39.17
2022-12-18T02:41:56.374Z,42.93
2022-12-18T02:44:25.852Z,40.60
2022-12-18T02:46:55.798Z,44.47
2022-12-18T02:49:38.031Z,40.30
2022-12-18T02:52:29.865Z,38.57
2022-12-18T02:55:02.061Z,39.63
2022-12-18T02:57:37.737Z,38.47
2022-12-18T03:00:12.198Z,40.50
2022-12-18T03:03:04.043Z,38.43
2022-12-18T03:05:33.466Z,37.73
2022-12-18T03:08:07.993Z,39.33
2022-12-18T03:10:41.559Z,36.70
2022-12-18T03:13:17.581Z,35.70
2022-12-18T03:15:52.636Z,34.60
2022-12-18T03:18:25.868Z,36.20
2022-12-18T03:20:55.899Z,33.83
2022-12-18T03:23:26.613Z,35.57
2022-12-18T03:25:56.341Z,36.40
2022-12-18T03:28:26.365Z,38.67
2022-12-18T03:31:03.311Z,38.83
2022-12-18T03:33:37.186Z,38.70
2022-12-18T03:36:05.550Z,37.60
2022-12-18T03:38:34.864Z,39.83
2022-12-18T03:41:02.509Z,39.33
2022-12-18T03:43:45.897Z,38.67
2022-12-18T03:46:30.036Z,35.17
2022-12-18T03:49:04.171Z,36.80
2022-12-18T03:51:38.070Z,37.03
2022-12-18T03:54:07.967Z,36.17
2022-12-18T03:56:48.883Z,36.47
2022-12-18T03:59:18.341Z,41.17
2022-12-18T04:01:50.769Z,36.47
2022-12-18T04:04:20.550Z,54.00
2022-12-18T04:06:49.474Z,39.90
2022-12-18T04:09:21.607Z,37.20
2022-12-18T04:11:50.064Z,37.13
2022-12-18T04:14:18.672Z,37.87
2022-12-18T04:16:51.057Z,38.90
2022-12-18T04:19:23.218Z,38.43
2022-12-18T04:21:53.202Z,36.90
2022-12-18T04:24:21.343Z,38.13
2022-12-18T04:27:05.762Z,36.57
2022-12-18T04:29:40.981Z,37.67
2022-12-18T04:32:09.505Z,40.03
2022-12-18T04:34:38.865Z,36.40
2022-12-18T04:37:06.838Z,38.13
2022-12-18T04:39:35.055Z,37.37
2022-12-18T04:42:08.001Z,39.67
2022-12-18T04:44:36.017Z,38.03
2022-12-18T04:47:03.765Z,35.90
2022-12-18T04:49:31.822Z,35.90
2022-12-18T04:51:59.595Z,35.97
2022-12-18T04:54:27.555Z,42.40
2022-12-18T04:56:55.433Z,45.27
2022-12-18T04:59:23.563Z,44.40
2022-12-18T05:01:51.514Z,40.47
2022-12-18T05:04:19.836Z,36.23
2022-12-18T05:06:47.825Z,38.47
2022-12-18T05:09:16.861Z,38.43
2022-12-18T05:11:45.161Z,37.87
2022-12-18T05:14:14.505Z,38.37
2022-12-18T05:16:42.528Z,37.43
2022-12-18T05:19:11.515Z,36.93
2022-12-18T05:21:39.803Z,37.50
2022-12-18T05:24:07.892Z,36.17
2022-12-18T05:26:35.722Z,34.93
2022-12-18T05:29:03.728Z,38.27
2022-12-18T05:31:35.973Z,36.07
2022-12-18T05:34:07.209Z,35.93
2022-12-18T05:36:34.923Z,36.23
2022-12-18T05:39:02.934Z,36.43
2022-12-18T05:41:31.010Z,35.77
2022-12-18T05:43:59.806Z,35.90
2022-12-18T05:46:27.679Z,35.77
2022-12-18T05:48:55.750Z,36.87
2022-12-18T05:51:24.272Z,38.70
2022-12-18T05:53:52.230Z,34.80
2022-12-18T05:56:21.066Z,35.37
2022-12-18T05:58:49.319Z,34.57
2022-12-18T06:01:19.004Z,35.33
2022-12-18T06:03:47.801Z,36.60
2022-12-18T06:06:20.685Z,52.80
2022-12-18T06:08:48.728Z,38.73
2022-12-18T06:11:19.092Z,41.07
2022-12-18T06:13:47.742Z,38.63
2022-12-18T06:16:15.645Z,38.80
2022-12-18T06:18:43.767Z,36.87
2022-12-18T06:21:11.436Z,37.53
2022-12-18T06:23:40.113Z,33.47
2022-12-18T06:26:09.472Z,34.47
2022-12-18T06:28:37.591Z,35.23
2022-12-18T06:31:06.243Z,37.00
2022-12-18T06:33:34.466Z,34.73
2022-12-18T06:36:10.917Z,35.87
2022-12-18T06:38:40.490Z,36.00
2022-12-18T06:41:09.558Z,34.63
2022-12-18T06:43:37.975Z,34.83
2022-12-18T06:46:07.172Z,35.83
2022-12-18T06:48:35.566Z,36.63
2022-12-18T06:51:03.909Z,35.60
2022-12-18T06:53:32.008Z,35.17
2022-12-18T06:56:10.243Z,36.87
2022-12-18T06:58:40.639Z,38.63
2022-12-18T07:01:11.090Z,38.17
2022-12-18T07:03:43.377Z,40.90
2022-12-18T07:06:16.566Z,40.53
2022-12-18T07:08:44.856Z,40.90
2022-12-18T07:11:12.770Z,44.20
2022-12-18T07:13:41.286Z,45.07
2022-12-18T07:16:18.350Z,43.87
2022-12-18T07:18:50.609Z,42.83
2022-12-18T07:21:19.757Z,45.53
2022-12-18T07:23:49.209Z,46.00
2022-12-18T07:26:18.856Z,46.33
2022-12-18T07:28:47.375Z,50.10
2022-12-18T07:31:18.399Z,47.47
2022-12-18T07:33:47.385Z,49.47
2022-12-18T07:36:16.652Z,46.93
2022-12-18T07:38:45.002Z,47.87
2022-12-18T07:41:14.067Z,46.57
2022-12-18T07:43:43.512Z,47.70
2022-12-18T07:46:13.430Z,46.00
2022-12-18T07:48:42.645Z,46.03
2022-12-18T07:51:11.313Z,45.00
2022-12-18T07:53:39.750Z,46.07
2022-12-18T07:56:30.825Z,43.53
2022-12-18T07:59:01.042Z,42.23
2022-12-18T08:01:32.732Z,44.10
2022-12-18T08:04:01.185Z,42.07
2022-12-18T08:06:28.932Z,42.77
2022-12-18T08:08:57.703Z,42.77
2022-12-18T08:11:27.414Z,42.20
2022-12-18T08:13:56.095Z,41.97
2022-12-18T08:16:25.050Z,38.90
2022-12-18T08:18:54.560Z,39.73
2022-12-18T08:21:24.165Z,38.13
2022-12-18T08:23:53.153Z,38.80
2022-12-18T08:26:22.007Z,38.50
2022-12-18T08:28:51.925Z,37.10
2022-12-18T08:31:20.280Z,38.83
2022-12-18T08:33:53.421Z,39.30
2022-12-18T08:36:22.991Z,38.03
2022-12-18T08:38:51.863Z,38.77
2022-12-18T08:41:20.642Z,36.23
2022-12-18T08:44:07.988Z,36.23
2022-12-18T08:46:37.660Z,34.37
2022-12-18T08:49:06.958Z,33.27
2022-12-18T08:51:36.124Z,33.07
2022-12-18T08:54:06.379Z,33.83
2022-12-18T08:56:35.974Z,33.40
2022-12-18T08:59:05.890Z,33.93
2022-12-18T09:01:34.374Z,31.60
2022-12-18T09:04:06.861Z,30.70
2022-12-18T09:06:36.446Z,31.30
2022-12-18T09:09:11.848Z,31.33
2022-12-18T09:11:39.864Z,35.17
2022-12-18T09:14:08.117Z,33.80
2022-12-18T09:16:44.458Z,39.57
2022-12-18T09:19:13.184Z,33.10
2022-12-18T09:21:47.467Z,33.23
2022-12-18T09:24:18.314Z,31.20
2022-12-18T09:26:47.196Z,36.83
2022-12-18T09:29:18.962Z,34.13
2022-12-18T09:31:47.741Z,36.87
2022-12-18T09:34:16.192Z,32.80
2022-12-18T09:36:44.524Z,33.60
2022-12-18T09:39:12.823Z,30.57
2022-12-18T09:41:49.200Z,32.10
2022-12-18T09:44:23.400Z,31.63
2022-12-18T09:47:02.473Z,37.73
2022-12-18T09:49:34.486Z,29.80
2022-12-18T09:52:34.806Z,31.47
2022-12-18T09:55:16.872Z,31.20
2022-12-18T09:57:49.716Z,31.20
2022-12-18T10:00:18.453Z,32.30
2022-12-18T10:02:46.650Z,33.80
2022-12-18T10:05:18.369Z,36.63
2022-12-18T10:08:07.093Z,33.27
2022-12-18T10:10:53.503Z,32.10
2022-12-18T10:13:41.079Z,33.93
2022-12-18T10:16:25.339Z,34.33
2022-12-18T10:18:59.212Z,36.20
2022-12-18T10:21:32.624Z,36.80
2022-12-18T10:24:39.211Z,35.37
2022-12-18T10:27:28.489Z,33.80
2022-12-18T10:29:56.735Z,35.30
2022-12-18T10:32:29.868Z,34.77
2022-12-18T10:35:00.761Z,34.10
2022-12-18T10:37:30.472Z,30.80
2022-12-18T10:40:21.986Z,33.83
2022-12-18T10:43:15.631Z,33.73
2022-12-18T10:45:44.195Z,31.97
2022-12-18T10:48:23.046Z,33.33
2022-12-18T10:53:41.781Z,35.63
2022-12-18T10:56:09.534Z,36.10
2022-12-18T10:58:40.224Z,34.63
2022-12-18T11:01:08.606Z,34.63
2022-12-18T11:03:45.609Z,36.77
2022-12-18T11:06:19.449Z,36.27
2022-12-18T11:09:13.931Z,36.37
2022-12-18T11:11:43.277Z,39.47
2022-12-18T11:14:20.742Z,42.47
2022-12-18T11:17:23.712Z,38.97
2022-12-18T11:19:39.221Z,39.13
2022-12-18T11:22:23.925Z,43.43
2022-12-18T11:25:29.995Z,41.80
2022-12-18T11:27:51.915Z,44.53
2022-12-18T11:30:27.325Z,43.57
2022-12-18T11:32:59.720Z,43.57
2022-12-18T11:35:39.488Z,45.10
2022-12-18T11:38:23.938Z,47.97
2022-12-18T11:40:59.870Z,45.50
2022-12-18T11:43:55.398Z,46.10
2022-12-18T11:47:01.390Z,44.90
2022-12-18T11:49:41.038Z,44.50
2022-12-18T11:52:40.526Z,41.37
2022-12-18T11:55:16.499Z,42.33
2022-12-18T11:57:48.059Z,40.73
2022-12-18T12:00:22.908Z,43.20
2022-12-18T12:03:18.903Z,41.57
2022-12-18T12:06:03.873Z,42.63
2022-12-18T12:09:25.628Z,42.53
2022-12-18T12:11:54.536Z,48.63
2022-12-18T12:14:50.878Z,45.97
2022-12-18T12:17:27.143Z,48.57
2022-12-18T12:20:00.613Z,47.80
2022-12-18T12:22:52.565Z,46.73
2022-12-18T12:25:29.398Z,40.43
2022-12-18T12:28:01.982Z,41.97
2022-12-18T12:31:08.899Z,45.37
2022-12-18T12:33:56.247Z,41.73
2022-12-18T12:36:30.603Z,43.87
2022-12-18T12:39:04.939Z,45.20
2022-12-18T12:41:54.112Z,44.80
2022-12-18T12:44:28.624Z,45.90
2022-12-18T12:47:04.686Z,45.47
2022-12-18T12:49:40.286Z,46.80
2022-12-18T12:52:41.679Z,49.07
2022-12-18T12:55:17.496Z,47.13
2022-12-18T12:57:49.416Z,49.10
2022-12-18T13:00:20.981Z,48.63
2022-12-18T13:03:20.322Z,45.57
2022-12-18T13:06:04.652Z,47.17
2022-12-18T13:08:57.280Z,46.17
2022-12-18T13:11:59.691Z,47.77
2022-12-18T13:14:42.299Z,46.70
2022-12-18T13:17:21.859Z,49.47
2022-12-18T13:20:15.604Z,50.27
2022-12-18T13:22:50.886Z,51.17
2022-12-18T13:25:39.234Z,52.30
2022-12-18T13:28:09.752Z,52.40
2022-12-18T13:30:37.916Z,51.70
2022-12-18T13:33:18.598Z,51.73
2022-12-18T13:35:50.264Z,52.23
2022-12-18T13:38:33.643Z,53.10
2022-12-18T13:41:02.881Z,70.40
2022-12-18T13:43:32.781Z,59.07
2022-12-18T13:46:00.919Z,55.77
2022-12-18T13:48:29.839Z,53.43
2022-12-18T13:51:03.232Z,56.30
2022-12-18T13:53:36.763Z,51.00
2022-12-18T13:56:06.325Z,53.87
2022-12-18T13:58:35.236Z,56.00
2022-12-18T14:01:05.920Z,54.33
2022-12-18T14:03:33.912Z,56.33
2022-12-18T14:06:06.099Z,57.23
2022-12-18T14:08:40.661Z,58.53
2022-12-18T14:11:21.710Z,54.97
2022-12-18T14:13:50.047Z,56.50
2022-12-18T14:16:19.849Z,55.80
2022-12-18T14:19:00.958Z,50.47
2022-12-18T14:21:39.113Z,53.67
2022-12-18T14:24:10.493Z,59.50
2022-12-18T14:26:38.539Z,59.37
2022-12-18T14:29:26.467Z,57.90
2022-12-18T14:32:09.349Z,55.33
2022-12-18T14:34:40.237Z,55.10
2022-12-18T14:37:11.580Z,51.67
2022-12-18T14:39:39.785Z,58.00
2022-12-18T14:42:12.434Z,53.83
2022-12-18T14:45:05.263Z,54.73
2022-12-18T14:47:29.176Z,55.27
2022-12-18T14:49:57.212Z,58.57
2022-12-18T14:52:30.391Z,57.03
2022-12-18T14:54:58.510Z,59.43
2022-12-18T14:57:33.635Z,58.27
2022-12-18T15:00:16.072Z,61.30
2022-12-18T15:02:46.140Z,60.13
2022-12-18T15:05:13.994Z,59.93
2022-12-18T15:07:53.610Z,59.17
2022-12-18T15:10:21.513Z,68.87
2022-12-18T15:12:50.482Z,62.50
2022-12-18T15:15:39.214Z,65.10
2022-12-18T15:18:09.881Z,64.50
2022-12-18T15:20:43.441Z,63.33
2022-12-18T15:23:27.525Z,62.50
2022-12-18T15:26:00.956Z,66.00
2022-12-18T15:28:37.503Z,66.27
2022-12-18T15:31:16.582Z,62.93
2022-12-18T15:33:53.415Z,60.60
2022-12-18T15:36:26.275Z,62.20
2022-12-18T15:39:05.273Z,69.53
2022-12-18T15:41:36.332Z,64.30
2022-12-18T15:44:05.512Z,64.70
2022-12-18T15:46:33.133Z,63.70
2022-12-18T15:49:02.648Z,61.13
2022-12-18T15:51:38.641Z,58.70
2022-12-18T15:54:10.798Z,59.57
2022-12-18T15:56:57.053Z,57.63
2022-12-18T15:59:26.075Z,63.20
2022-12-18T16:01:57.347Z,62.83
2022-12-18T16:04:26.319Z,64.63
2022-12-18T16:09:43.037Z,72.63
2022-12-18T16:12:23.585Z,74.33
2022-12-18T16:14:51.607Z,77.03
2022-12-18T16:17:19.326Z,83.10
2022-12-18T16:19:47.317Z,75.67
2022-12-18T16:22:27.761Z,75.17
2022-12-18T16:24:56.854Z,78.07
2022-12-18T16:27:25.067Z,81.50
2022-12-18T16:29:53.479Z,83.60
2022-12-18T16:32:23.543Z,87.77
2022-12-18T16:34:52.443Z,85.70
2022-12-18T16:37:20.134Z,80.33
2022-12-18T16:39:48.410Z,80.57
2022-12-18T16:42:21.347Z,73.03
2022-12-18T16:44:50.122Z,67.10
2022-12-18T16:47:20.134Z,63.87
2022-12-18T16:49:51.691Z,66.23
2022-12-18T16:52:19.880Z,62.57
2022-12-18T16:54:48.289Z,61.47
2022-12-18T16:57:19.936Z,63.40
2022-12-18T16:59:49.883Z,58.47
2022-12-18T17:02:22.826Z,60.70
2022-12-18T17:04:55.078Z,66.90
2022-12-18T17:07:22.741Z,64.10
2022-12-18T17:09:51.275Z,67.73
2022-12-18T17:12:18.944Z,67.10
2022-12-18T17:14:46.872Z,68.33
2022-12-18T17:17:23.357Z,76.50
2022-12-18T17:19:52.713Z,77.83
2022-12-18T17:22:21.842Z,75.17
2022-12-18T17:24:50.842Z,75.03
2022-12-18T17:27:18.825Z,75.93
2022-12-18T17:29:48.627Z,77.67
2022-12-18T17:32:17.968Z,72.73
2022-12-18T17:34:46.509Z,70.27
2022-12-18T17:37:14.688Z,69.50
2022-12-18T17:39:42.646Z,75.43
2022-12-18T17:42:10.913Z,72.90
2022-12-18T17:44:43.380Z,69.97
2022-12-18T17:47:12.331Z,60.50
2022-12-18T17:49:40.686Z,61.07
2022-12-18T17:52:08.323Z,60.03
2022-12-18T17:54:39.780Z,61.80
2022-12-18T17:57:07.823Z,61.63
2022-12-18T17:59:35.571Z,64.60
2022-12-18T18:02:03.693Z,62.73
2022-12-18T18:04:32.544Z,61.33
2022-12-18T18:07:00.839Z,67.40
2022-12-18T18:09:28.880Z,67.23
2022-12-18T18:12:16.378Z,68.37
2022-12-18T18:14:44.127Z,70.07
2022-12-18T18:17:12.524Z,68.97
2022-12-18T18:19:42.101Z,66.83
2022-12-18T18:22:12.124Z,68.23
2022-12-18T18:24:46.940Z,66.63
2022-12-18T18:27:15.187Z,73.30
2022-12-18T18:29:43.106Z,70.50
2022-12-18T18:32:11.532Z,66.73
2022-12-18T18:34:39.036Z,73.00
2022-12-18T18:37:07.774Z,70.97
2022-12-18T18:39:35.652Z,69.93
2022-12-18T18:42:03.981Z,74.03
2022-12-18T18:44:31.844Z,75.83
2022-12-18T18:47:00.079Z,74.60
2022-12-18T18:49:30.054Z,73.23
2022-12-18T18:51:59.310Z,69.10
2022-12-18T18:54:27.348Z,65.53
2022-12-18T18:57:19.497Z,64.33
2022-12-18T18:59:43.684Z,62.00
2022-12-18T19:02:16.080Z,65.53
2022-12-18T19:04:45.682Z,69.60
2022-12-18T19:07:18.977Z,68.87
2022-12-18T19:09:59.594Z,65.57
2022-12-18T19:12:52.773Z,68.40
2022-12-18T19:15:22.768Z,65.97
2022-12-18T19:17:51.296Z,65.90
2022-12-18T19:20:19.313Z,68.47
2022-12-18T19:22:54.672Z,68.57
2022-12-18T19:25:28.128Z,69.97
2022-12-18T19:28:06.270Z,67.70
2022-12-18T19:30:39.852Z,66.10
2022-12-18T19:33:34.030Z,68.07
2022-12-18T19:35:55.818Z,67.17
2022-12-18T19:38:23.828Z,65.70
2022-12-18T19:40:51.583Z,69.13
2022-12-18T19:43:19.838Z,64.80
2022-12-18T19:45:55.375Z,68.07
2022-12-18T19:48:23.657Z,67.47
2022-12-18T19:50:51.609Z,67.67
2022-12-18T19:53:19.990Z,67.93
2022-12-18T19:55:47.932Z,67.20
2022-12-18T19:58:17.733Z,67.73
2022-12-18T20:00:48.132Z,68.67
2022-12-18T20:03:27.160Z,69.10
2022-12-18T20:06:09.586Z,71.43
2022-12-18T20:08:38.840Z,72.17
2022-12-18T20:11:07.120Z,72.37
2022-12-18T20:13:35.798Z,67.33
2022-12-18T20:16:04.191Z,69.80
2022-12-18T20:18:32.386Z,66.23
2022-12-18T20:21:01.197Z,68.13
2022-12-18T20:23:32.166Z,68.43
2022-12-18T20:26:02.580Z,66.13
2022-12-18T20:28:32.574Z,61.70
2022-12-18T20:31:05.277Z,63.50
2022-12-18T20:33:34.064Z,66.17
2022-12-18T20:36:05.622Z,68.13
2022-12-18T20:38:35.640Z,65.37
2022-12-18T20:41:08.459Z,66.23
2022-12-18T20:43:37.413Z,65.57
2022-12-18T20:46:08.510Z,68.83
2022-12-18T20:48:37.421Z,64.40
2022-12-18T20:51:11.525Z,65.50
2022-12-18T20:53:42.161Z,61.77
2022-12-18T20:56:22.917Z,63.13
2022-12-18T20:58:55.004Z,65.33
2022-12-18T21:01:24.932Z,61.90
2022-12-18T21:03:53.455Z,62.70
2022-12-18T21:06:23.481Z,62.83
2022-12-18T21:08:51.846Z,62.47
2022-12-18T21:11:40.852Z,62.53
2022-12-18T21:14:19.668Z,62.13
2022-12-18T21:16:48.866Z,62.10
2022-12-18T21:19:20.425Z,63.57
2022-12-18T21:21:48.544Z,59.83
2022-12-18T21:24:17.120Z,62.93
2022-12-18T21:26:46.456Z,63.57
2022-12-18T21:29:18.414Z,58.40
2022-12-18T21:31:46.853Z,58.93
2022-12-18T21:34:21.741Z,58.73
2022-12-18T21:36:50.043Z,58.37
2022-12-18T21:39:18.648Z,60.27
2022-12-18T21:42:08.370Z,60.60
2022-12-18T21:44:42.359Z,62.03
2022-12-18T21:47:17.577Z,64.20
2022-12-18T21:49:53.974Z,60.57
2022-12-18T21:52:29.823Z,65.93
2022-12-18T21:55:08.857Z,65.03
2022-12-18T21:57:38.322Z,62.83
2022-12-18T22:00:08.325Z,61.50
2022-12-18T22:02:42.283Z,62.30
2022-12-18T22:05:10.606Z,64.17
2022-12-18T22:07:39.569Z,64.23
2022-12-18T22:10:07.909Z,68.63
2022-12-18T22:12:43.547Z,69.90
2022-12-18T22:15:18.302Z,72.37
2022-12-18T22:17:59.734Z,70.53
2022-12-18T22:20:29.307Z,70.67
2022-12-18T22:22:58.504Z,72.80
2022-12-18T22:25:26.607Z,72.50
2022-12-18T22:28:13.309Z,77.40
2022-12-18T22:30:41.497Z,79.30
2022-12-18T22:33:09.349Z,80.03
2022-12-18T22:35:37.269Z,79.23
2022-12-18T22:38:05.107Z,78.53
2022-12-18T22:40:33.127Z,79.33
2022-12-18T22:43:00.847Z,80.17
2022-12-18T22:45:29.245Z,80.27
2022-12-18T22:47:57.119Z,80.90
2022-12-18T22:50:25.297Z,76.13
2022-12-18T22:52:53.027Z,76.40
2022-12-18T22:55:21.071Z,78.43
2022-12-18T22:57:50.316Z,76.83
2022-12-18T23:00:24.183Z,75.17
2022-12-18T23:02:59.844Z,73.67
2022-12-18T23:05:30.701Z,72.47
2022-12-18T23:07:59.177Z,72.37
2022-12-18T23:10:27.590Z,74.07
2022-12-18T23:12:55.558Z,70.03
2022-12-18T23:15:28.557Z,70.10
2022-12-18T23:17:58.524Z,71.87
2022-12-18T23:20:28.128Z,70.63
2022-12-18T23:22:55.975Z,68.57
2022-12-18T23:25:24.103Z,63.87
2022-12-18T23:27:51.995Z,62.00
2022-12-18T23:30:20.157Z,62.00
2022-12-18T23:32:48.300Z,61.57
2022-12-18T23:35:17.298Z,65.33
2022-12-18T23:38:00.960Z,61.57
2022-12-18T23:40:30.192Z,63.90
2022-12-18T23:43:00.422Z,60.00
2022-12-18T23:45:28.769Z,62.20
2022-12-18T23:47:56.745Z,52.37
2022-12-18T23:50:29.094Z,55.47
2022-12-18T23:53:03.750Z,52.50
2022-12-18T23:55:33.341Z,52.67
2022-12-18T23:58:01.081Z,52.90
